Time;durP1;ratioP1;P1;durP2;ratioP2;P2;SDS_P1;SDS_P2;PMS_P1;PMS_P2;Temp;Humidity;BMP_temperature;BMP_pressure;BME280_temperature;BME280_humidity;BME280_pressure;Samples;Min_cycle;Max_cycle;Signal;HPM_P1;HPM_P2
2023/12/22 00:01:06;;;;;;;1.23;0.45;;;3.20;99.90;;;;;;5018309;28;20026;-54
2023/12/22 00:03:31;;;;;;;4.57;0.55;;;3.20;99.90;;;;;;5027170;28;20117;-56
2023/12/22 00:05:57;;;;;;;3.38;0.75;;;3.20;99.90;;;;;;5018649;28;20061;-54
2023/12/22 00:08:23;;;;;;;1.30;0.50;;;3.30;99.90;;;;;;5017828;28;20129;-55
2023/12/22 00:10:49;;;;;;;2.58;0.80;;;3.30;99.90;;;;;;5020205;28;20088;-56
2023/12/22 00:13:15;;;;;;;5.25;0.40;;;3.40;99.90;;;;;;5023679;28;20034;-54
2023/12/22 00:15:42;;;;;;;5.30;0.47;;;3.40;99.90;;;;;;5030818;28;20438;-54
2023/12/22 00:18:08;;;;;;;5.40;0.68;;;3.50;99.90;;;;;;5019106;28;20022;-53
2023/12/22 00:20:33;;;;;;;1.73;0.73;;;3.50;99.90;;;;;;5021219;28;20484;-53
2023/12/22 00:22:59;;;;;;;1.80;0.70;;;3.50;99.90;;;;;;5001009;28;20505;-54
2023/12/22 00:25:25;;;;;;;7.00;0.88;;;3.50;99.90;;;;;;5020543;28;20029;-56
2023/12/22 00:27:50;;;;;;;1.65;0.50;;;3.60;99.90;;;;;;5026312;28;20028;-53
2023/12/22 00:30:16;;;;;;;7.22;1.17;;;3.60;99.90;;;;;;5021136;28;20454;-55
2023/12/22 00:32:42;;;;;;;1.75;0.80;;;3.60;99.90;;;;;;5019368;28;20025;-55
2023/12/22 00:35:08;;;;;;;4.88;1.20;;;3.70;99.90;;;;;;5019018;28;20025;-53
2023/12/22 00:37:34;;;;;;;4.03;0.90;;;3.70;99.90;;;;;;5022839;28;20083;-55
2023/12/22 00:39:59;;;;;;;4.75;1.55;;;3.80;99.90;;;;;;5029111;28;20088;-55
2023/12/22 00:42:25;;;;;;;3.45;0.65;;;3.80;99.90;;;;;;5017925;28;20030;-54
2023/12/22 00:44:51;;;;;;;2.45;0.73;;;3.90;99.90;;;;;;5018034;28;20102;-54
2023/12/22 00:47:17;;;;;;;9.40;1.05;;;3.90;99.90;;;;;;5024419;28;20033;-54
2023/12/22 00:49:42;;;;;;;9.20;1.35;;;3.90;99.90;;;;;;5025362;28;20034;-52
2023/12/22 00:52:08;;;;;;;10.73;0.93;;;3.90;99.90;;;;;;5021790;28;20514;-56
2023/12/22 00:54:34;;;;;;;3.08;0.85;;;4.00;99.90;;;;;;5020235;28;20147;-54
2023/12/22 00:57:00;;;;;;;6.93;1.65;;;4.10;99.90;;;;;;5014720;28;20487;-57
2023/12/22 00:59:26;;;;;;;6.93;1.30;;;4.10;99.90;;;;;;5021188;28;20025;-54
2023/12/22 01:01:51;;;;;;;7.05;0.90;;;4.10;99.90;;;;;;5014872;28;20054;-54
2023/12/22 01:04:17;;;;;;;10.25;1.10;;;4.10;99.90;;;;;;5025867;28;20029;-53
2023/12/22 01:06:43;;;;;;;15.80;1.38;;;4.10;99.90;;;;;;5022065;28;20026;-56
2023/12/22 01:09:08;;;;;;;5.15;0.70;;;4.20;99.90;;;;;;5019726;28;20488;-53
2023/12/22 01:11:34;;;;;;;6.80;1.55;;;4.20;99.90;;;;;;5021448;28;20096;-53
2023/12/22 01:14:00;;;;;;;6.60;1.10;;;4.20;99.90;;;;;;5018416;28;20064;-56
2023/12/22 01:16:25;;;;;;;8.23;1.00;;;4.20;99.90;;;;;;5021990;28;20030;-55
2023/12/22 01:18:51;;;;;;;8.75;1.40;;;4.20;99.90;;;;;;5020449;28;20033;-57
2023/12/22 01:21:17;;;;;;;9.35;1.40;;;4.30;99.90;;;;;;5017101;28;20030;-55
2023/12/22 01:23:43;;;;;;;10.15;0.95;;;4.30;99.90;;;;;;4994123;28;20107;-53
2023/12/22 01:26:08;;;;;;;6.30;1.00;;;4.30;99.90;;;;;;5017276;28;20026;-52
2023/12/22 01:28:34;;;;;;;6.40;1.02;;;4.30;99.90;;;;;;5015935;28;20030;-60
2023/12/22 01:31:01;;;;;;;4.78;1.00;;;4.30;99.90;;;;;;5015812;28;20851;-55
2023/12/22 01:33:26;;;;;;;4.40;0.50;;;4.40;99.90;;;;;;5015016;28;20072;-57
2023/12/22 01:35:52;;;;;;;19.92;2.40;;;4.40;99.90;;;;;;5017589;28;20029;-55
2023/12/22 01:38:18;;;;;;;10.40;1.88;;;4.40;99.90;;;;;;5015582;28;20029;-54
2023/12/22 01:40:44;;;;;;;13.93;2.15;;;4.40;99.90;;;;;;5002594;28;20029;-54
2023/12/22 01:43:09;;;;;;;3.97;1.38;;;4.40;99.90;;;;;;5018262;28;20103;-55
2023/12/22 01:45:35;;;;;;;9.25;1.20;;;4.40;99.90;;;;;;5015901;28;20105;-56
2023/12/22 01:48:02;;;;;;;13.40;1.23;;;4.40;99.90;;;;;;5022860;28;20021;-54
2023/12/22 01:50:28;;;;;;;10.68;1.25;;;4.50;99.90;;;;;;5019281;28;20111;-55
2023/12/22 01:52:54;;;;;;;13.82;1.33;;;4.40;99.90;;;;;;5018540;28;20033;-55
2023/12/22 01:55:20;;;;;;;8.40;1.08;;;4.50;99.90;;;;;;5015192;28;20030;-54
2023/12/22 01:57:47;;;;;;;7.05;1.30;;;4.50;99.90;;;;;;5018956;28;20096;-55
2023/12/22 02:00:13;;;;;;;11.73;1.45;;;4.50;99.90;;;;;;5014110;28;20077;-55
2023/12/22 02:02:42;;;;;;;9.85;1.38;;;4.50;99.90;;;;;;5019756;28;20049;-55
2023/12/22 02:05:11;;;;;;;6.40;1.50;;;4.50;99.90;;;;;;5017710;28;20022;-54
2023/12/22 02:07:39;;;;;;;7.60;0.80;;;4.50;99.90;;;;;;5009662;28;20112;-55
2023/12/22 02:10:07;;;;;;;4.43;1.10;;;4.60;99.90;;;;;;5017217;28;20029;-55
2023/12/22 02:12:32;;;;;;;8.07;1.00;;;4.60;99.90;;;;;;5008641;28;20068;-56
2023/12/22 02:14:58;;;;;;;10.20;1.17;;;4.60;99.90;;;;;;5011690;28;20057;-52
2023/12/22 02:17:43;;;;;;;17.63;1.98;;;4.60;99.90;;;;;;5012116;28;20041;-53
2023/12/22 02:20:10;;;;;;;15.45;1.50;;;4.60;99.90;;;;;;5012937;28;20032;-56
2023/12/22 02:22:36;;;;;;;13.25;1.38;;;4.70;99.90;;;;;;5014299;28;20030;-52
2023/12/22 02:25:01;;;;;;;8.25;1.17;;;4.60;99.90;;;;;;5016050;28;20595;-56
2023/12/22 02:27:48;;;;;;;5.50;1.20;;;4.70;99.90;;;;;;5017800;28;20067;-54
2023/12/22 02:30:44;;;;;;;14.70;1.65;;;4.70;99.90;;;;;;5016462;28;20030;-52
2023/12/22 02:33:12;;;;;;;7.88;1.23;;;4.70;99.90;;;;;;5020243;28;20081;-56
2023/12/22 02:35:41;;;;;;;11.40;1.35;;;4.70;99.90;;;;;;5017534;28;20400;-54
2023/12/22 02:38:08;;;;;;;13.07;1.92;;;4.70;99.90;;;;;;5009738;28;20038;-54
2023/12/22 02:40:34;;;;;;;8.18;0.98;;;4.70;99.90;;;;;;5010952;28;20034;-53
2023/12/22 02:43:02;;;;;;;13.07;1.45;;;4.70;99.90;;;;;;5008922;28;20571;-53
2023/12/22 02:45:27;;;;;;;5.15;1.40;;;4.70;99.90;;;;;;5023373;28;20105;-54
2023/12/22 02:47:53;;;;;;;11.10;1.73;;;4.70;99.90;;;;;;5016722;28;20033;-53
2023/12/22 02:50:19;;;;;;;14.35;1.70;;;4.70;99.90;;;;;;5014949;28;20492;-53
2023/12/22 02:52:44;;;;;;;13.55;1.90;;;4.70;99.90;;;;;;5014285;28;20036;-56
2023/12/22 02:55:10;;;;;;;18.80;1.60;;;4.70;99.90;;;;;;5016658;28;20554;-53
2023/12/22 02:57:35;;;;;;;11.55;1.40;;;4.70;99.90;;;;;;5012510;28;20049;-52
2023/12/22 03:00:02;;;;;;;9.38;1.95;;;4.70;99.90;;;;;;5023057;28;20383;-53
2023/12/22 03:02:27;;;;;;;10.98;1.50;;;4.70;99.90;;;;;;5020108;28;20518;-53
2023/12/22 03:04:53;;;;;;;12.13;1.75;;;4.70;99.90;;;;;;5021666;28;20026;-54
2023/12/22 03:07:18;;;;;;;7.82;1.83;;;4.70;99.90;;;;;;5014559;28;20041;-53
2023/12/22 03:09:44;;;;;;;13.30;1.85;;;4.70;99.90;;;;;;5011850;28;20026;-53
2023/12/22 03:12:10;;;;;;;6.82;1.30;;;4.80;99.90;;;;;;5017318;28;20038;-54
2023/12/22 03:14:36;;;;;;;13.63;2.08;;;4.80;99.90;;;;;;5022355;28;20040;-53
2023/12/22 03:17:04;;;;;;;11.70;1.63;;;4.80;99.90;;;;;;5029008;28;20030;-52
2023/12/22 03:19:30;;;;;;;13.75;2.50;;;4.80;99.90;;;;;;5028346;28;20033;-52
2023/12/22 03:21:56;;;;;;;11.27;3.38;;;4.80;99.90;;;;;;5026789;28;20445;-52
2023/12/22 03:24:23;;;;;;;13.73;1.90;;;4.70;99.90;;;;;;5021841;28;20853;-51
2023/12/22 03:26:52;;;;;;;9.30;1.65;;;4.70;99.90;;;;;;5020983;28;20064;-52
2023/12/22 03:29:18;;;;;;;7.97;1.95;;;4.70;99.90;;;;;;5020411;28;20040;-53
2023/12/22 03:31:44;;;;;;;10.20;2.10;;;4.70;99.90;;;;;;5015588;28;20029;-52
2023/12/22 03:34:10;;;;;;;14.40;2.67;;;4.70;99.90;;;;;;5016192;28;20049;-56
2023/12/22 03:36:35;;;;;;;8.30;2.50;;;4.70;99.90;;;;;;5009947;28;20151;-53
2023/12/22 03:39:02;;;;;;;19.90;2.92;;;4.70;99.90;;;;;;5020594;28;20079;-55
2023/12/22 03:41:29;;;;;;;26.80;3.35;;;4.60;99.90;;;;;;5027135;28;20121;-52
2023/12/22 03:43:55;;;;;;;21.85;2.88;;;4.60;99.90;;;;;;5019754;28;20072;-52
2023/12/22 03:46:20;;;;;;;13.65;2.80;;;4.60;99.90;;;;;;5022569;28;20022;-52
2023/12/22 03:48:46;;;;;;;10.27;2.45;;;4.60;99.90;;;;;;5020660;28;20740;-53
2023/12/22 03:51:14;;;;;;;15.52;3.03;;;4.60;99.90;;;;;;5022945;28;20029;-53
2023/12/22 03:53:40;;;;;;;8.95;2.60;;;4.60;99.90;;;;;;5023899;28;20492;-52
2023/12/22 03:56:07;;;;;;;16.05;2.83;;;4.70;99.90;;;;;;5025855;28;20025;-53
2023/12/22 03:58:33;;;;;;;11.65;2.33;;;4.70;99.90;;;;;;5023054;28;20037;-52
2023/12/22 04:00:58;;;;;;;13.77;2.65;;;4.70;99.90;;;;;;5020987;28;20037;-52
2023/12/22 04:03:24;;;;;;;23.38;2.70;;;4.70;99.90;;;;;;5020568;28;20052;-52
2023/12/22 04:05:50;;;;;;;25.45;3.03;;;4.70;99.90;;;;;;5023218;28;20034;-52
2023/12/22 04:08:15;;;;;;;20.02;2.83;;;4.70;99.90;;;;;;5021740;28;20021;-53
2023/12/22 04:10:41;;;;;;;16.30;2.70;;;4.80;99.90;;;;;;5021017;28;20044;-55
2023/12/22 04:13:07;;;;;;;23.05;3.63;;;4.80;99.90;;;;;;5022837;28;20057;-53
2023/12/22 04:15:32;;;;;;;22.65;2.42;;;4.80;99.90;;;;;;5020347;28;20025;-55
2023/12/22 04:17:58;;;;;;;16.48;2.15;;;4.80;99.90;;;;;;5021712;28;20022;-52
2023/12/22 04:20:24;;;;;;;17.33;2.58;;;4.70;99.90;;;;;;5021824;28;20101;-55
2023/12/22 04:22:49;;;;;;;10.55;3.10;;;4.70;99.90;;;;;;5025762;28;20026;-54
2023/12/22 04:25:15;;;;;;;15.48;2.13;;;4.80;99.90;;;;;;5023766;28;20072;-53
2023/12/22 04:27:42;;;;;;;25.00;4.07;;;4.80;99.90;;;;;;5020887;28;20025;-52
2023/12/22 04:30:08;;;;;;;15.52;2.05;;;4.80;99.90;;;;;;5027521;28;20534;-56
2023/12/22 04:32:33;;;;;;;19.63;1.90;;;4.80;99.90;;;;;;5022102;28;20071;-52
2023/12/22 04:34:59;;;;;;;12.68;2.15;;;4.80;99.90;;;;;;5019164;28;20046;-54
2023/12/22 04:37:25;;;;;;;20.30;3.25;;;4.90;99.90;;;;;;5023603;28;20037;-53
2023/12/22 04:39:51;;;;;;;27.27;2.42;;;4.90;99.90;;;;;;5021016;28;20025;-53
2023/12/22 04:42:16;;;;;;;18.85;2.85;;;4.90;99.90;;;;;;5028653;28;20559;-53
2023/12/22 04:44:42;;;;;;;19.15;2.63;;;4.90;99.90;;;;;;5018998;28;20037;-55
2023/12/22 04:47:08;;;;;;;12.70;2.42;;;5.00;99.90;;;;;;5024325;28;20033;-52
2023/12/22 04:49:33;;;;;;;23.63;2.35;;;5.00;99.90;;;;;;5024458;28;20519;-55
2023/12/22 04:51:59;;;;;;;19.48;2.35;;;5.00;99.90;;;;;;5025178;28;20059;-52
2023/12/22 04:54:24;;;;;;;18.63;3.35;;;5.00;99.90;;;;;;5031228;28;20021;-52
2023/12/22 04:56:50;;;;;;;14.40;2.97;;;5.10;99.90;;;;;;5027355;28;20025;-54
2023/12/22 04:59:15;;;;;;;19.90;2.17;;;5.10;99.90;;;;;;5029677;28;20555;-51
2023/12/22 05:01:42;;;;;;;20.45;4.07;;;5.10;99.90;;;;;;5022088;28;20046;-52
2023/12/22 05:04:09;;;;;;;14.82;2.67;;;5.20;99.90;;;;;;5036222;28;20029;-55
2023/12/22 05:06:35;;;;;;;15.68;3.35;;;5.10;99.90;;;;;;5023177;28;20030;-53
2023/12/22 05:09:00;;;;;;;21.70;3.90;;;5.00;99.90;;;;;;5023276;28;20510;-54
2023/12/22 05:11:26;;;;;;;15.10;2.55;;;5.00;99.90;;;;;;5030115;28;20025;-54
2023/12/22 05:13:51;;;;;;;10.25;2.28;;;5.00;99.90;;;;;;5028104;28;20480;-52
2023/12/22 05:16:17;;;;;;;15.70;3.45;;;5.00;99.90;;;;;;5024743;28;20117;-52
2023/12/22 05:18:43;;;;;;;22.83;2.35;;;5.00;99.90;;;;;;5029139;28;20061;-53
2023/12/22 05:21:12;;;;;;;20.35;3.42;;;5.10;99.90;;;;;;5020349;28;20021;-56
2023/12/22 05:23:38;;;;;;;17.00;2.20;;;5.00;99.90;;;;;;5023312;28;20148;-56
2023/12/22 05:26:04;;;;;;;21.23;2.42;;;5.00;99.90;;;;;;5029234;28;20128;-54
2023/12/22 05:28:29;;;;;;;23.90;5.10;;;5.00;99.90;;;;;;5025525;28;20028;-53
2023/12/22 05:30:55;;;;;;;17.30;2.60;;;5.10;99.90;;;;;;5022552;28;20036;-54
2023/12/22 05:33:20;;;;;;;16.17;3.25;;;5.20;99.90;;;;;;5027124;28;20041;-53
2023/12/22 05:35:46;;;;;;;21.42;3.00;;;5.30;99.90;;;;;;5022511;28;20783;-53
2023/12/22 05:38:11;;;;;;;20.75;3.25;;;5.30;99.90;;;;;;5023832;28;20077;-56
2023/12/22 05:40:37;;;;;;;13.13;2.20;;;5.30;99.90;;;;;;5017491;28;20088;-53
2023/12/22 05:43:03;;;;;;;32.63;3.63;;;5.40;99.90;;;;;;5017422;28;20031;-51
2023/12/22 05:45:28;;;;;;;14.05;2.60;;;5.40;99.90;;;;;;5023472;28;20034;-53
2023/12/22 05:47:54;;;;;;;13.45;2.10;;;5.50;99.90;;;;;;5023282;28;20038;-54
2023/12/22 05:50:20;;;;;;;24.38;3.38;;;5.50;99.90;;;;;;5027316;28;20025;-53
2023/12/22 05:52:45;;;;;;;18.73;2.30;;;5.60;99.90;;;;;;5018566;28;20064;-52
2023/12/22 05:55:11;;;;;;;21.48;2.70;;;5.60;99.90;;;;;;5025846;28;20053;-54
2023/12/22 05:57:37;;;;;;;20.98;2.20;;;5.70;99.90;;;;;;5022615;28;20025;-54
2023/12/22 06:00:07;;;;;;;18.30;3.38;;;5.80;99.90;;;;;;5028087;28;20033;-54
2023/12/22 06:02:33;;;;;;;14.60;2.17;;;5.80;99.90;;;;;;5023636;28;20052;-53
2023/12/22 06:04:59;;;;;;;20.65;2.28;;;5.80;99.90;;;;;;5025615;28;20161;-51
2023/12/22 06:07:25;;;;;;;22.02;2.58;;;5.90;99.90;;;;;;5008253;28;20116;-55
2023/12/22 06:09:51;;;;;;;31.58;2.22;;;5.90;99.90;;;;;;5025513;28;20033;-57
2023/12/22 06:12:17;;;;;;;11.25;2.55;;;5.90;99.90;;;;;;5025947;28;20045;-55
2023/12/22 06:14:42;;;;;;;22.17;2.78;;;5.90;99.90;;;;;;5017671;28;20026;-55
2023/12/22 06:17:08;;;;;;;26.33;3.10;;;6.00;99.90;;;;;;5022663;28;20488;-57
2023/12/22 06:19:35;;;;;;;14.63;2.85;;;6.00;99.90;;;;;;5020392;28;20484;-55
2023/12/22 06:22:01;;;;;;;18.92;2.13;;;6.00;99.90;;;;;;5021717;28;20427;-53
2023/12/22 06:24:27;;;;;;;11.52;1.73;;;6.10;99.90;;;;;;5018161;28;20041;-52
2023/12/22 06:26:53;;;;;;;22.92;2.95;;;6.10;99.90;;;;;;5024224;28;20045;-54
2023/12/22 06:29:18;;;;;;;15.18;1.85;;;6.10;99.90;;;;;;5025409;28;20476;-55
2023/12/22 06:31:44;;;;;;;12.05;3.13;;;6.10;99.90;;;;;;5021115;28;20061;-53
2023/12/22 06:34:09;;;;;;;10.05;2.25;;;6.20;99.90;;;;;;5027943;28;20048;-54
2023/12/22 06:36:35;;;;;;;14.63;3.20;;;6.20;99.90;;;;;;5027097;28;20029;-54
2023/12/22 06:39:00;;;;;;;11.00;2.40;;;6.20;99.90;;;;;;5027681;28;20189;-56
2023/12/22 06:41:28;;;;;;;18.27;3.22;;;6.20;99.90;;;;;;5030686;28;20033;-54
2023/12/22 06:43:55;;;;;;;18.85;2.65;;;6.30;99.90;;;;;;5023544;28;20025;-54
2023/12/22 06:46:27;;;;;;;24.20;2.40;;;6.20;99.90;;;;;;5021934;28;20407;-56
2023/12/22 06:48:54;;;;;;;23.58;2.67;;;6.20;99.90;;;;;;5027103;28;20491;-55
2023/12/22 06:51:31;;;;;;;10.93;2.22;;;6.20;99.90;;;;;;5020119;28;20057;-54
2023/12/22 06:53:59;;;;;;;10.90;2.78;;;6.20;99.90;;;;;;5026057;28;20022;-54
2023/12/22 06:56:27;;;;;;;17.17;2.70;;;6.20;99.90;;;;;;5030528;28;20018;-56
2023/12/22 06:58:54;;;;;;;22.70;3.88;;;6.30;99.90;;;;;;5026075;28;20076;-57
2023/12/22 07:01:23;;;;;;;24.80;3.38;;;6.20;99.90;;;;;;5021016;28;20034;-53
2023/12/22 07:03:49;;;;;;;24.52;3.13;;;6.30;99.90;;;;;;5027795;28;20431;-53
2023/12/22 07:06:16;;;;;;;20.63;2.53;;;6.40;99.90;;;;;;5022668;28;20022;-55
2023/12/22 07:08:42;;;;;;;22.65;2.58;;;6.40;99.90;;;;;;5025842;28;20559;-53
2023/12/22 07:11:09;;;;;;;18.45;2.88;;;6.40;99.90;;;;;;5020253;28;20095;-53
2023/12/22 07:13:34;;;;;;;11.38;2.15;;;6.40;99.90;;;;;;5022503;28;20026;-54
2023/12/22 07:16:02;;;;;;;14.13;2.08;;;6.40;99.90;;;;;;5030088;28;20032;-56
2023/12/22 07:18:30;;;;;;;8.80;1.67;;;6.50;99.90;;;;;;5025880;28;20090;-53
2023/12/22 07:20:57;;;;;;;12.68;3.13;;;6.50;99.90;;;;;;5025740;28;20029;-54
2023/12/22 07:23:22;;;;;;;9.38;2.22;;;6.50;99.90;;;;;;5025084;28;20507;-53
2023/12/22 07:25:48;;;;;;;7.65;1.60;;;6.40;99.90;;;;;;5000511;28;20034;-56
2023/12/22 07:28:14;;;;;;;6.60;2.50;;;6.50;99.90;;;;;;5027913;28;20447;-52
2023/12/22 07:30:39;;;;;;;8.90;2.25;;;6.40;99.90;;;;;;5025960;28;20022;-55
2023/12/22 07:33:05;;;;;;;10.27;1.52;;;6.40;99.90;;;;;;5022547;28;20080;-56
2023/12/22 07:35:31;;;;;;;10.80;1.73;;;6.40;99.90;;;;;;5019411;28;20041;-56
2023/12/22 07:37:56;;;;;;;7.97;2.08;;;6.30;99.90;;;;;;5026759;28;20030;-56
2023/12/22 07:40:22;;;;;;;8.20;0.95;;;6.30;99.90;;;;;;5023659;28;20029;-53
2023/12/22 07:42:47;;;;;;;9.68;1.67;;;6.30;99.90;;;;;;5022807;28;20396;-52
2023/12/22 07:45:13;;;;;;;11.40;1.60;;;6.30;99.90;;;;;;5021136;28;20036;-54
2023/12/22 07:47:39;;;;;;;7.95;1.48;;;6.30;99.90;;;;;;5031468;28;20030;-53
2023/12/22 07:50:08;;;;;;;11.13;2.30;;;6.30;99.90;;;;;;5029914;28;20496;-53
2023/12/22 07:52:37;;;;;;;12.18;2.47;;;6.30;99.90;;;;;;5024934;28;20049;-57
2023/12/22 07:55:04;;;;;;;5.15;1.65;;;6.20;99.90;;;;;;5021564;28;20535;-53
2023/12/22 07:57:30;;;;;;;9.85;1.20;;;6.10;99.90;;;;;;5026047;28;20030;-53
2023/12/22 07:59:56;;;;;;;6.22;1.55;;;6.10;99.90;;;;;;5030951;28;20032;-53
2023/12/22 08:02:22;;;;;;;4.22;1.95;;;6.10;99.90;;;;;;5024747;28;20033;-53
2023/12/22 08:04:50;;;;;;;7.43;1.60;;;6.00;99.90;;;;;;5027820;28;20030;-52
2023/12/22 08:07:15;;;;;;;5.47;1.50;;;5.90;99.90;;;;;;5020767;28;20029;-53
2023/12/22 08:09:41;;;;;;;6.47;1.75;;;5.80;99.90;;;;;;5020644;28;20922;-54
2023/12/22 08:12:08;;;;;;;7.35;1.38;;;5.80;99.90;;;;;;5021949;28;20042;-53
2023/12/22 08:14:33;;;;;;;14.05;4.60;;;5.80;99.90;;;;;;5030581;28;20546;-52
2023/12/22 08:16:59;;;;;;;10.93;2.28;;;5.70;99.90;;;;;;5030314;28;20024;-55
2023/12/22 08:19:25;;;;;;;17.58;3.80;;;5.70;99.90;;;;;;5023085;28;20372;-55
2023/12/22 08:21:53;;;;;;;17.65;4.07;;;5.80;99.90;;;;;;5017197;28;20029;-53
2023/12/22 08:24:19;;;;;;;23.13;3.00;;;5.80;99.90;;;;;;5029097;28;20423;-53
2023/12/22 08:26:44;;;;;;;11.63;2.25;;;5.90;99.90;;;;;;5023186;28;20046;-55
2023/12/22 08:29:10;;;;;;;22.55;3.10;;;5.90;99.90;;;;;;5030595;28;20030;-54
2023/12/22 08:31:36;;;;;;;8.75;2.88;;;6.00;99.90;;;;;;5021412;28;20117;-52
2023/12/22 08:34:01;;;;;;;14.55;2.70;;;6.00;99.90;;;;;;5014628;28;20010;-54
2023/12/22 08:36:27;;;;;;;21.42;3.13;;;6.10;99.90;;;;;;5022772;28;20033;-52
2023/12/22 08:38:52;;;;;;;21.48;3.35;;;6.20;99.90;;;;;;5027459;28;20025;-56
2023/12/22 08:41:18;;;;;;;28.02;3.35;;;6.20;99.90;;;;;;5021566;28;20033;-55
2023/12/22 08:43:44;;;;;;;16.92;3.33;;;6.20;99.90;;;;;;5019074;28;20489;-53
2023/12/22 08:46:09;;;;;;;13.07;3.60;;;6.20;99.90;;;;;;5016237;28;20029;-53
2023/12/22 08:48:35;;;;;;;20.70;3.40;;;6.30;99.90;;;;;;5023723;28;20029;-56
2023/12/22 08:51:01;;;;;;;24.83;2.70;;;6.30;99.90;;;;;;5018589;28;20113;-54
2023/12/22 08:53:29;;;;;;;23.98;4.53;;;6.40;99.90;;;;;;5020866;28;20154;-53
2023/12/22 08:55:56;;;;;;;25.73;3.88;;;6.40;99.90;;;;;;5024032;28;20029;-56
2023/12/22 08:58:23;;;;;;;27.85;4.57;;;6.50;99.90;;;;;;5027880;28;20053;-51
2023/12/22 09:00:49;;;;;;;27.13;5.15;;;6.60;99.90;;;;;;5028347;28;20024;-54
2023/12/22 09:03:14;;;;;;;29.63;5.20;;;6.60;99.90;;;;;;5023433;28;20029;-55
2023/12/22 09:05:40;;;;;;;12.35;3.53;;;6.70;99.90;;;;;;5024176;28;20022;-52
2023/12/22 09:08:06;;;;;;;24.35;4.07;;;6.70;99.90;;;;;;5017428;28;20105;-54
2023/12/22 09:10:32;;;;;;;29.25;4.40;;;6.80;99.90;;;;;;5020829;28;20060;-52
2023/12/22 09:12:58;;;;;;;25.42;4.22;;;6.90;99.90;;;;;;5025391;28;20041;-53
2023/12/22 09:15:23;;;;;;;19.45;3.72;;;7.00;99.90;;;;;;5027053;28;20104;-50
2023/12/22 09:17:52;;;;;;;31.88;7.20;;;7.00;99.90;;;;;;5027007;28;20037;-50
2023/12/22 09:20:17;;;;;;;26.67;4.80;;;7.00;99.90;;;;;;5025200;28;20030;-52
2023/12/22 09:22:43;;;;;;;24.98;5.45;;;7.00;99.90;;;;;;5030382;28;20042;-53
2023/12/22 09:25:09;;;;;;;28.15;4.15;;;7.00;99.90;;;;;;5027094;28;20519;-55
2023/12/22 09:27:34;;;;;;;18.67;3.58;;;7.10;99.90;;;;;;5018882;28;20064;-55
2023/12/22 09:30:00;;;;;;;26.73;4.13;;;7.10;99.90;;;;;;5023424;28;20036;-53
2023/12/22 09:32:26;;;;;;;22.02;4.30;;;7.20;99.90;;;;;;5023276;28;20034;-54
2023/12/22 09:34:52;;;;;;;37.90;5.05;;;7.20;99.90;;;;;;5017631;28;20161;-53
2023/12/22 09:37:18;;;;;;;25.92;5.00;;;7.30;99.90;;;;;;5015157;28;20112;-54
2023/12/22 09:39:43;;;;;;;22.98;4.03;;;7.30;99.90;;;;;;5015841;28;20464;-54
2023/12/22 09:42:09;;;;;;;30.55;4.78;;;7.30;99.90;;;;;;5030419;28;20570;-52
2023/12/22 09:44:37;;;;;;;26.70;4.63;;;7.40;99.90;;;;;;5027495;28;20034;-54
2023/12/22 09:47:05;;;;;;;28.30;4.50;;;7.40;99.90;;;;;;5025689;28;20448;-53
2023/12/22 09:49:33;;;;;;;29.60;4.32;;;7.40;99.90;;;;;;5028004;28;20041;-55
2023/12/22 09:52:01;;;;;;;26.13;3.75;;;7.50;99.90;;;;;;5018756;28;20104;-55
2023/12/22 09:54:27;;;;;;;25.27;4.00;;;7.50;99.90;;;;;;5027477;28;20030;-54
2023/12/22 09:56:54;;;;;;;23.67;3.35;;;7.50;99.90;;;;;;5018924;28;20081;-54
2023/12/22 09:59:22;;;;;;;19.55;3.25;;;7.50;99.90;;;;;;5030036;28;20018;-54
2023/12/22 10:01:50;;;;;;;27.92;4.10;;;7.50;99.90;;;;;;5025477;28;20065;-56
2023/12/22 10:04:16;;;;;;;18.80;3.95;;;7.50;99.90;;;;;;5025249;28;20108;-54
2023/12/22 10:06:43;;;;;;;20.08;2.65;;;7.50;99.90;;;;;;5022054;28;20548;-53
2023/12/22 10:09:11;;;;;;;29.50;6.13;;;7.50;99.90;;;;;;5023299;28;20025;-54
2023/12/22 10:11:37;;;;;;;26.80;4.30;;;7.60;99.90;;;;;;5029779;28;20032;-54
2023/12/22 10:14:04;;;;;;;19.08;3.83;;;7.60;99.90;;;;;;5024840;28;20021;-54
2023/12/22 10:16:30;;;;;;;22.95;2.72;;;7.60;99.90;;;;;;5022554;28;20022;-53
2023/12/22 10:18:56;;;;;;;19.85;3.80;;;7.70;99.90;;;;;;5021596;28;20109;-55
2023/12/22 10:21:22;;;;;;;12.63;3.13;;;7.80;99.90;;;;;;5027052;28;20037;-56
2023/12/22 10:23:48;;;;;;;14.23;3.45;;;7.80;99.90;;;;;;5026420;28;20027;-54
2023/12/22 10:26:13;;;;;;;12.27;3.50;;;7.70;99.90;;;;;;5022042;28;20511;-54
2023/12/22 10:28:41;;;;;;;11.93;2.45;;;7.80;99.90;;;;;;5021716;28;20033;-55
2023/12/22 10:31:07;;;;;;;13.15;2.97;;;7.70;99.90;;;;;;5027777;28;20028;-53
2023/12/22 10:33:33;;;;;;;14.57;2.67;;;7.70;99.90;;;;;;5021951;28;20407;-52
2023/12/22 10:35:59;;;;;;;14.35;2.90;;;7.70;99.90;;;;;;5019605;28;20022;-54
2023/12/22 10:38:31;;;;;;;8.18;1.92;;;7.70;99.90;;;;;;5018753;28;20412;-53
2023/12/22 10:40:57;;;;;;;12.10;2.00;;;7.70;99.90;;;;;;5026555;28;20028;-55
2023/12/22 10:43:24;;;;;;;8.43;2.72;;;7.70;99.90;;;;;;5018908;28;20041;-57
2023/12/22 10:45:54;;;;;;;11.57;1.88;;;7.70;99.90;;;;;;5023696;28;20075;-53
2023/12/22 10:48:21;;;;;;;10.60;1.90;;;7.80;99.90;;;;;;5020850;28;20045;-55
2023/12/22 10:50:48;;;;;;;6.63;1.48;;;7.70;99.90;;;;;;5018916;28;20026;-53
2023/12/22 10:53:14;;;;;;;7.32;1.73;;;7.80;99.90;;;;;;5020639;28;20025;-53
2023/12/22 10:55:39;;;;;;;15.02;3.53;;;7.80;99.90;;;;;;5020210;28;20030;-52
2023/12/22 10:58:05;;;;;;;9.85;1.80;;;7.80;99.90;;;;;;5021336;28;20025;-52
2023/12/22 11:00:33;;;;;;;16.45;3.22;;;7.80;99.90;;;;;;5023267;28;20088;-53
2023/12/22 11:03:03;;;;;;;11.88;3.25;;;7.70;99.90;;;;;;5019976;28;20021;-54
2023/12/22 11:05:31;;;;;;;9.05;1.80;;;7.80;99.90;;;;;;5017569;28;20461;-53
2023/12/22 11:08:02;;;;;;;7.43;2.35;;;7.70;99.90;;;;;;5021134;28;20055;-52
2023/12/22 11:10:29;;;;;;;3.10;1.48;;;7.70;99.90;;;;;;5016463;28;20022;-55
2023/12/22 11:12:57;;;;;;;7.47;1.92;;;7.70;99.90;;;;;;5027414;28;20033;-55
2023/12/22 11:15:24;;;;;;;5.70;2.13;;;7.70;99.90;;;;;;5026967;28;20089;-56
2023/12/22 11:17:51;;;;;;;5.72;2.22;;;7.70;99.90;;;;;;5028197;28;20033;-54
2023/12/22 11:20:18;;;;;;;7.68;2.17;;;7.70;99.90;;;;;;5027302;28;20369;-54
2023/12/22 11:22:45;;;;;;;6.70;2.33;;;7.70;99.90;;;;;;5030940;28;20029;-53
2023/12/22 11:25:10;;;;;;;7.38;2.08;;;7.70;99.90;;;;;;5022699;28;20096;-55
2023/12/22 11:27:37;;;;;;;4.03;1.92;;;7.80;99.90;;;;;;5019717;28;20121;-54
2023/12/22 11:30:08;;;;;;;9.60;1.90;;;7.80;99.90;;;;;;5023230;28;20041;-53
2023/12/22 11:32:34;;;;;;;8.43;2.10;;;7.80;99.90;;;;;;5027554;28;20376;-55
2023/12/22 11:35:00;;;;;;;5.03;1.95;;;7.80;99.90;;;;;;5030435;28;20029;-55
2023/12/22 11:37:25;;;;;;;6.22;2.53;;;7.90;99.90;;;;;;5021263;28;20051;-56
2023/12/22 11:39:52;;;;;;;6.88;1.98;;;7.90;99.90;;;;;;5020518;28;20471;-53
2023/12/22 11:42:31;;;;;;;3.42;1.92;;;7.90;99.90;;;;;;5023192;28;20041;-51
2023/12/22 11:44:57;;;;;;;6.60;1.98;;;8.00;99.90;;;;;;5020384;28;20033;-56
2023/12/22 11:47:23;;;;;;;5.55;2.47;;;8.00;99.90;;;;;;5024749;28;20396;-53
2023/12/22 11:49:52;;;;;;;6.57;1.83;;;8.10;99.90;;;;;;5024240;28;20033;-53
2023/12/22 11:52:25;;;;;;;6.68;2.13;;;8.10;99.90;;;;;;5025303;28;20056;-53
2023/12/22 11:54:52;;;;;;;4.72;2.00;;;8.10;99.90;;;;;;5018860;28;20088;-53
2023/12/22 11:57:31;;;;;;;13.48;3.08;;;8.20;99.90;;;;;;5019365;28;20077;-54
2023/12/22 12:00:31;;;;;;;6.18;2.20;;;8.20;99.90;;;;;;5024637;28;20041;-53
2023/12/22 12:02:57;;;;;;;4.35;1.70;;;8.20;99.90;;;;;;5023347;28;20103;-54
2023/12/22 12:05:23;;;;;;;5.55;1.75;;;8.30;99.90;;;;;;5028355;28;20026;-52
2023/12/22 12:07:49;;;;;;;9.20;2.45;;;8.40;99.90;;;;;;5021394;28;20044;-52
2023/12/22 12:10:51;;;;;;;3.78;2.40;;;8.40;99.90;;;;;;5024280;28;20036;-53
2023/12/22 12:13:23;;;;;;;7.75;1.88;;;8.40;99.90;;;;;;4934347;29;20049;-54
2023/12/22 12:15:51;;;;;;;6.15;1.70;;;8.40;99.90;;;;;;5010303;28;20083;-55
2023/12/22 12:18:22;;;;;;;5.90;1.90;;;8.50;99.90;;;;;;5022587;28;20030;-54
2023/12/22 12:20:48;;;;;;;4.07;2.08;;;8.40;99.90;;;;;;5017326;28;20054;-54
2023/12/22 12:23:16;;;;;;;4.82;2.83;;;8.50;99.90;;;;;;5021635;28;20662;-55
2023/12/22 12:25:42;;;;;;;4.63;1.48;;;8.50;99.90;;;;;;5020341;28;20427;-53
2023/12/22 12:28:09;;;;;;;2.80;1.42;;;8.50;99.90;;;;;;5019076;28;20041;-53
2023/12/22 12:30:36;;;;;;;4.45;1.30;;;8.50;99.90;;;;;;5019488;28;20034;-54
2023/12/22 12:33:13;;;;;;;4.82;1.17;;;8.60;99.90;;;;;;5022980;28;20033;-53
2023/12/22 12:35:39;;;;;;;7.63;1.73;;;8.60;99.90;;;;;;5026328;28;20083;-55
2023/12/22 12:38:06;;;;;;;3.50;1.67;;;8.60;99.90;;;;;;5025798;28;20036;-53
2023/12/22 12:40:33;;;;;;;4.50;1.52;;;8.70;99.90;;;;;;5026932;28;20055;-56
2023/12/22 12:43:00;;;;;;;4.45;1.40;;;8.70;99.90;;;;;;5023826;28;20033;-56
2023/12/22 12:45:26;;;;;;;5.68;1.45;;;8.70;99.90;;;;;;5018055;28;20058;-54
2023/12/22 12:48:00;;;;;;;7.53;1.90;;;8.70;99.90;;;;;;5024193;28;20057;-54